Time;durP1;ratioP1;P1;durP2;ratioP2;P2;SDS_P1;SDS_P2;PMS_P1;PMS_P2;Temp;Humidity;BMP_temperature;BMP_pressure;BME280_temperature;BME280_humidity;BME280_pressure;Samples;Min_cycle;Max_cycle;Signal;HPM_P1;HPM_P2
2022/01/31 00:00:26;;;;;;;6.60;4.05;;;;;;;4.82;66.20;100915.16;4974000;28;20039;-89
2022/01/31 00:03:02;;;;;;;6.90;3.97;;;;;;;4.78;66.46;100923.47;4973625;28;20125;-89
2022/01/31 00:05:47;;;;;;;7.97;4.10;;;;;;;4.70;67.93;100953.91;4973497;28;20059;-89
2022/01/31 00:08:22;;;;;;;7.03;4.05;;;;;;;4.73;66.89;100932.56;4973789;28;20069;-90
2022/01/31 00:10:53;;;;;;;9.88;4.22;;;;;;;4.61;67.24;100929.88;4972854;28;20030;-90
2022/01/31 00:14:10;;;;;;;9.35;4.07;;;;;;;4.75;67.18;100965.53;4957457;28;20499;-91
2022/01/31 00:20:25;;;;;;;8.57;4.13;;;;;;;4.73;67.04;100968.75;4974100;28;20058;-94
2022/01/31 00:26:13;;;;;;;8.30;3.78;;;;;;;4.44;67.26;100936.28;4974668;28;20126;-91
2022/01/31 00:32:00;;;;;;;8.60;3.95;;;;;;;4.52;67.53;100953.31;4974601;28;20050;-92
2022/01/31 00:34:32;;;;;;;9.50;3.83;;;;;;;4.56;67.90;100967.41;4957653;28;20027;-93
2022/01/31 00:37:00;;;;;;;6.25;3.58;;;;;;;4.27;68.10;100904.78;4956625;28;20432;-92
2022/01/31 00:39:40;;;;;;;7.95;3.60;;;;;;;4.45;67.76;100920.00;4970140;28;20520;-92
2022/01/31 00:42:29;;;;;;;7.32;4.00;;;;;;;4.48;67.59;100910.78;4957389;28;20022;-95
2022/01/31 00:45:43;;;;;;;7.60;3.65;;;;;;;4.67;67.95;100933.84;4974992;28;20033;-95
2022/01/31 00:48:29;;;;;;;7.60;4.03;;;;;;;4.57;67.46;100887.38;4976216;28;20399;-95
2022/01/31 00:51:02;;;;;;;7.80;3.93;;;;;;;4.82;67.11;100926.41;4979958;28;20115;-95
2022/01/31 00:53:28;;;;;;;5.95;3.58;;;;;;;4.68;66.86;100876.19;4961956;28;20290;-95
2022/01/31 00:56:16;;;;;;;5.37;3.57;;;;;;;4.75;67.59;100918.94;4963566;28;20039;-95
2022/01/31 00:58:49;;;;;;;8.27;3.97;;;;;;;4.89;67.12;100907.13;4956816;28;20290;-93
2022/01/31 01:01:16;;;;;;;7.85;4.00;;;;;;;4.89;66.29;100883.84;4971091;28;20031;-96
2022/01/31 01:03:44;;;;;;;5.63;3.22;;;;;;;4.85;67.15;100908.56;4956441;28;20050;-92
2022/01/31 01:06:27;;;;;;;6.32;3.58;;;;;;;4.72;67.33;100872.16;4956894;28;20727;-93
2022/01/31 01:08:56;;;;;;;5.65;3.42;;;;;;;4.78;67.33;100907.94;4957331;28;20031;-94
2022/01/31 01:12:17;;;;;;;6.22;3.55;;;;;;;4.83;66.71;100907.53;4957317;28;20034;-93
2022/01/31 01:18:05;;;;;;;6.47;3.55;;;;;;;4.88;66.84;100913.97;4973754;28;20049;-91
2022/01/31 01:20:50;;;;;;;4.93;2.97;;;;;;;4.90;66.79;100908.91;4956808;28;20027;-91
2022/01/31 01:23:20;;;;;;;11.27;3.22;;;;;;;4.47;66.76;100844.34;4956019;28;20062;-93
2022/01/31 01:25:50;;;;;;;7.53;3.45;;;;;;;4.84;66.34;100880.84;4956668;28;20026;-92
2022/01/31 01:28:22;;;;;;;8.88;3.30;;;;;;;4.87;66.99;100908.69;4956236;28;20518;-91
2022/01/31 01:31:20;;;;;;;5.60;2.90;;;;;;;5.03;66.30;100903.00;4956743;28;20125;-91
2022/01/31 01:37:08;;;;;;;8.25;3.50;;;;;;;4.93;67.22;100903.06;4973811;28;20114;-92
2022/01/31 01:39:52;;;;;;;5.80;2.90;;;;;;;4.83;67.34;100902.34;4972439;28;20062;-94
2022/01/31 01:42:43;;;;;;;4.50;3.05;;;;;;;4.93;67.19;100905.66;4957060;28;20035;-94
2022/01/31 01:45:16;;;;;;;6.60;3.10;;;;;;;4.66;67.03;100902.72;4974046;28;20074;-93
2022/01/31 01:48:15;;;;;;;8.18;3.20;;;;;;;4.78;67.33;100911.41;4972889;28;20035;-93
2022/01/31 01:50:55;;;;;;;5.60;3.00;;;;;;;4.83;66.65;100909.22;4976939;28;20034;-93
2022/01/31 01:53:22;;;;;;;7.07;3.28;;;;;;;4.80;66.36;100880.50;4958360;28;20058;-93
2022/01/31 01:55:59;;;;;;;5.90;3.30;;;;;;;4.93;66.74;100922.06;4976717;28;20510;-93
2022/01/31 01:58:49;;;;;;;9.85;3.15;;;;;;;4.91;66.72;100915.91;4960493;28;20031;-93
2022/01/31 02:01:26;;;;;;;7.72;3.22;;;;;;;4.98;66.50;100905.25;4960751;28;20502;-94
2022/01/31 02:03:57;;;;;;;;;;;;;;;5.06;66.66;100923.97;4959841;28;20042;-93
2022/01/31 02:07:17;;;;;;;6.00;3.22;;;;;;;5.20;65.72;100925.94;4992746;28;19910;-92
2022/01/31 02:10:11;;;;;;;4.25;2.67;;;;;;;5.05;66.52;100925.63;4976267;28;20035;-95
2022/01/31 02:12:44;;;;;;;6.57;3.08;;;;;;;4.54;66.72;100850.00;4960518;28;20076;-95
2022/01/31 02:15:12;;;;;;;5.32;2.92;;;;;;;4.74;67.06;100893.88;4959079;28;20479;-95
2022/01/31 02:17:41;;;;;;;8.32;3.50;;;;;;;4.88;66.26;100890.66;4959740;28;20034;-95
2022/01/31 02:20:53;;;;;;;4.10;2.67;;;;;;;5.06;66.30;100924.88;4976288;28;20031;-93
2022/01/31 02:23:21;;;;;;;7.50;2.90;;;;;;;5.15;66.09;100923.78;4976794;28;20038;-93
2022/01/31 02:26:12;;;;;;;5.97;2.80;;;;;;;5.07;66.36;100926.66;4959799;28;20570;-95
2022/01/31 02:28:40;;;;;;;9.07;3.30;;;;;;;4.94;66.65;100934.25;4977698;28;20509;-94
2022/01/31 02:31:18;;;;;;;7.50;3.13;;;;;;;4.75;66.55;100879.25;4995431;28;20038;-94
2022/01/31 02:34:10;;;;;;;5.72;2.95;;;;;;;5.05;66.28;100925.63;4978864;28;20053;-94
2022/01/31 02:36:43;;;;;;;8.20;3.10;;;;;;;5.00;66.42;100919.22;4964128;28;20033;-91
2022/01/31 02:39:16;;;;;;;5.53;2.97;;;;;;;4.76;66.70;100902.63;4958791;28;20102;-93
2022/01/31 02:41:45;;;;;;;6.55;2.60;;;;;;;4.66;67.07;100889.78;4959639;28;20031;-94
2022/01/31 02:44:31;;;;;;;7.88;2.90;;;;;;;5.12;65.89;100915.75;4975458;28;20034;-91
2022/01/31 02:46:58;;;;;;;6.85;2.88;;;;;;;5.23;65.62;100933.94;4959685;28;20102;-92
2022/01/31 02:49:34;;;;;;;10.43;2.78;;;;;;;5.25;65.74;100921.13;4959210;28;20454;-92
2022/01/31 02:52:05;;;;;;;4.47;2.80;;;;;;;4.87;66.41;100901.81;4960928;28;20049;-92
2022/01/31 02:54:38;;;;;;;4.72;2.30;;;;;;;4.77;66.67;100922.56;4963133;28;20051;-93
2022/01/31 02:57:19;;;;;;;6.22;3.03;;;;;;;4.81;66.72;100903.91;4940368;29;20069;-93
2022/01/31 02:59:52;;;;;;;4.25;2.67;;;;;;;4.71;66.60;100897.91;4939601;28;20441;-93
2022/01/31 03:02:53;;;;;;;8.50;2.75;;;;;;;5.00;66.78;100933.84;4940092;29;20038;-94
2022/01/31 03:05:25;;;;;;;5.78;2.55;;;;;;;4.61;66.63;100884.22;4971997;28;20118;-93
2022/01/31 03:08:04;;;;;;;5.90;2.35;;;;;;;4.77;66.50;100895.81;4959853;29;20042;-93
2022/01/31 03:13:55;;;;;;;6.60;2.90;;;;;;;4.75;66.63;100903.44;4940251;29;20091;-93
2022/01/31 03:16:26;;;;;;;5.85;2.53;;;;;;;5.12;66.31;100947.72;4922331;29;20031;-93
2022/01/31 03:18:57;;;;;;;9.55;2.65;;;;;;;4.96;65.87;100909.41;4943760;29;20514;-93
2022/01/31 03:21:46;;;;;;;6.93;2.83;;;;;;;4.98;66.68;100956.09;4940347;29;20035;-91
2022/01/31 03:24:24;;;;;;;6.88;2.72;;;;;;;4.54;66.77;100893.97;4939834;29;20483;-94
2022/01/31 03:26:54;;;;;;;5.53;2.63;;;;;;;5.21;66.09;100968.28;4939539;29;20031;-92
2022/01/31 03:30:04;;;;;;;5.90;2.55;;;;;;;5.22;65.97;100975.25;4954968;29;20031;-92
2022/01/31 03:33:03;;;;;;;6.80;2.47;;;;;;;4.94;67.02;100982.53;4954792;28;20046;-90
2022/01/31 03:36:19;;;;;;;6.50;2.80;;;;;;;5.07;66.40;100982.69;4939352;29;20042;-92
2022/01/31 03:39:05;;;;;;;6.70;2.80;;;;;;;5.12;65.99;100980.47;4955650;28;20570;-90
2022/01/31 03:41:35;;;;;;;4.95;2.30;;;;;;;4.96;65.95;100944.72;4955625;29;20043;-92
2022/01/31 03:44:05;;;;;;;6.00;2.47;;;;;;;5.13;66.13;100979.72;4938768;29;20065;-89
2022/01/31 03:47:21;;;;;;;5.15;2.25;;;;;;;5.21;65.90;100987.28;4954798;29;20046;-90
2022/01/31 03:49:47;;;;;;;7.60;2.40;;;;;;;4.95;66.50;100968.78;4954236;28;20043;-92
2022/01/31 03:52:20;;;;;;;;;;;;;;;5.24;66.12;100976.25;4939123;29;20475;-91
2022/01/31 03:54:46;;;;;;;4.13;2.13;;;;;;;4.98;65.91;100961.28;4955077;28;20310;-92
2022/01/31 03:57:13;;;;;;;5.05;2.30;;;;;;;5.12;66.23;100980.47;4957565;28;20035;-90
2022/01/31 03:59:40;;;;;;;5.65;2.70;;;;;;;4.48;66.80;100903.03;4975800;28;20030;-90
2022/01/31 04:02:07;;;;;;;9.20;2.72;;;;;;;4.51;66.89;100928.25;4980768;28;20491;-90
2022/01/31 04:04:34;;;;;;;4.40;2.28;;;;;;;5.25;65.59;100988.44;4956386;28;20031;-90
2022/01/31 04:07:02;;;;;;;5.65;2.40;;;;;;;5.04;66.06;100991.13;4957371;28;20046;-90
2022/01/31 04:09:28;;;;;;;4.68;2.17;;;;;;;4.83;66.29;100963.56;4958013;28;20022;-90
2022/01/31 04:12:21;;;;;;;6.13;2.70;;;;;;;5.07;66.42;101011.19;4959389;28;20029;-90
2022/01/31 04:14:57;;;;;;;3.63;1.90;;;;;;;4.67;66.13;100933.84;4958078;28;20045;-91
2022/01/31 04:17:25;;;;;;;7.43;2.45;;;;;;;4.71;65.81;100935.00;4958112;28;20482;-91
2022/01/31 04:23:29;;;;;;;3.65;2.05;;;;;;;4.87;66.21;100987.19;4988089;28;20474;-90
2022/01/31 04:26:13;;;;;;;3.83;2.30;;;;;;;5.04;66.00;101006.66;4974355;28;20038;-89
2022/01/31 04:29:30;;;;;;;4.57;2.10;;;;;;;5.37;65.04;101035.09;4958067;28;20514;-90
2022/01/31 04:32:36;;;;;;;4.63;2.10;;;;;;;5.04;65.95;101032.53;4972848;28;20473;-92
2022/01/31 04:35:26;;;;;;;4.78;2.13;;;;;;;5.09;66.59;101051.91;4972782;28;20045;-91
2022/01/31 04:38:05;;;;;;;6.82;2.40;;;;;;;5.20;65.65;101060.53;4957416;28;20031;-90
2022/01/31 04:40:44;;;;;;;3.78;2.08;;;;;;;4.94;66.36;101037.75;4957581;28;20046;-90
2022/01/31 04:43:30;;;;;;;5.75;2.53;;;;;;;4.98;66.12;101054.44;4957307;28;20031;-90
2022/01/31 04:46:26;;;;;;;5.38;2.00;;;;;;;5.12;65.65;101053.84;4956770;28;20034;-92
2022/01/31 04:49:16;;;;;;;9.13;2.40;;;;;;;5.11;66.11;101057.22;4954356;29;20034;-90
2022/01/31 04:51:43;;;;;;;4.70;2.42;;;;;;;5.11;65.89;101046.88;4953882;29;20578;-91
2022/01/31 04:54:20;;;;;;;4.40;2.53;;;;;;;4.80;66.17;101020.22;4938004;29;20031;-91
2022/01/31 04:57:24;;;;;;;5.72;2.40;;;;;;;5.03;66.74;101064.38;4951060;28;20430;-92
2022/01/31 05:03:27;;;;;;;6.30;2.33;;;;;;;5.00;66.36;101068.41;4974006;28;20037;-90
2022/01/31 05:09:15;;;;;;;5.97;2.63;;;;;;;4.94;66.10;101040.34;4973401;28;20104;-90
2022/01/31 05:11:48;;;;;;;4.53;2.13;;;;;;;4.90;66.27;101046.06;4972647;28;20157;-91
2022/01/31 05:14:18;;;;;;;6.15;2.30;;;;;;;5.15;66.13;101084.28;4972602;28;20545;-88
2022/01/31 05:16:46;;;;;;;6.65;2.13;;;;;;;5.10;66.51;101082.22;4956038;28;20027;-91
2022/01/31 05:19:12;;;;;;;3.38;2.03;;;;;;;4.64;66.14;101025.84;4955860;28;20454;-91
2022/01/31 05:21:47;;;;;;;5.72;2.55;;;;;;;4.87;66.23;101049.31;4956212;28;20046;-91
2022/01/31 05:24:13;;;;;;;6.43;2.40;;;;;;;5.05;65.86;101067.09;4971985;28;20418;-90
2022/01/31 05:26:50;;;;;;;4.45;2.05;;;;;;;5.16;66.38;101097.31;4972116;28;20074;-90
2022/01/31 05:29:18;;;;;;;5.97;2.28;;;;;;;4.86;66.17;101063.00;4981695;28;20031;-89
2022/01/31 05:31:48;;;;;;;5.82;2.25;;;;;;;4.77;66.37;101062.25;4971303;28;20178;-89
2022/01/31 05:34:15;;;;;;;8.25;2.72;;;;;;;4.66;66.72;101058.81;4956327;28;20069;-90
2022/01/31 05:36:43;;;;;;;6.63;2.30;;;;;;;4.96;66.51;101081.88;4955967;28;20054;-91
2022/01/31 05:39:09;;;;;;;6.20;2.50;;;;;;;4.72;66.48;101048.06;4960238;28;20039;-91
2022/01/31 05:41:36;;;;;;;4.50;2.55;;;;;;;4.82;66.34;101068.72;4976017;28;20035;-93
2022/01/31 05:44:11;;;;;;;4.72;2.70;;;;;;;5.14;66.29;101109.22;4974681;28;20027;-94
2022/01/31 05:47:03;;;;;;;3.38;2.00;;;;;;;5.06;66.10;101111.22;4956152;28;20127;-94
2022/01/31 05:50:08;;;;;;;4.68;2.20;;;;;;;5.05;66.31;101112.00;4974074;28;20034;-94
2022/01/31 05:52:34;;;;;;;6.70;2.42;;;;;;;5.08;65.88;101095.81;4992192;28;20437;-88
2022/01/31 05:55:09;;;;;;;3.85;2.58;;;;;;;5.32;65.87;101115.00;4987987;28;20032;-91
2022/01/31 05:57:36;;;;;;;5.07;2.13;;;;;;;5.07;66.07;101096.59;4937123;29;20039;-90
2022/01/31 06:00:42;;;;;;;3.60;2.15;;;;;;;5.15;66.51;101120.53;4954317;28;20053;-92
2022/01/31 06:03:20;;;;;;;3.78;2.13;;;;;;;5.05;66.43;101119.75;4938783;28;20028;-92
2022/01/31 06:05:46;;;;;;;4.60;2.35;;;;;;;4.84;65.73;101056.78;4933836;29;20032;-90
2022/01/31 06:08:13;;;;;;;4.38;2.47;;;;;;;5.00;65.30;101071.91;4918105;29;20423;-93
2022/01/31 06:10:55;;;;;;;4.88;2.20;;;;;;;5.23;66.04;101135.88;4934726;29;20047;-94
2022/01/31 06:13:31;;;;;;;3.72;2.22;;;;;;;5.34;65.40;101134.16;4922025;29;20420;-96
2022/01/31 06:16:04;;;;;;;4.80;2.20;;;;;;;4.94;66.19;101102.44;4920995;29;20032;-92
2022/01/31 06:18:31;;;;;;;6.80;2.38;;;;;;;4.99;66.09;101110.59;4917779;29;20043;-94
2022/01/31 06:21:32;;;;;;;5.13;2.33;;;;;;;5.24;65.90;101134.19;4933640;29;20067;-91
2022/01/31 06:24:15;;;;;;;6.88;2.53;;;;;;;5.23;65.54;101135.88;4933277;29;20039;-92
2022/01/31 06:27:29;;;;;;;5.65;2.40;;;;;;;5.29;65.42;101138.97;4933620;29;20039;-92
2022/01/31 06:30:16;;;;;;;5.72;2.17;;;;;;;5.16;66.33;101151.69;4928549;29;20036;-93
2022/01/31 06:32:44;;;;;;;5.43;2.40;;;;;;;4.95;66.50;101124.06;4909144;29;20126;-92
2022/01/31 06:35:13;;;;;;;3.15;2.00;;;;;;;4.88;66.53;101115.78;4934905;29;20464;-93
2022/01/31 06:37:57;;;;;;;5.78;2.28;;;;;;;5.22;66.49;101151.28;4905177;29;20035;-95
2022/01/31 06:44:21;;;;;;;4.50;2.15;;;;;;;5.12;66.29;101140.97;4932560;29;20126;-96
2022/01/31 06:46:50;;;;;;;5.70;2.92;;;;;;;5.12;66.10;101151.31;4930390;29;20040;-95
2022/01/31 06:49:24;;;;;;;4.85;2.45;;;;;;;5.07;66.43;101144.06;4951718;29;20027;-95
2022/01/31 06:51:53;;;;;;;5.85;2.40;;;;;;;5.16;66.21;101133.56;4941842;29;20054;-95
2022/01/31 06:54:32;;;;;;;5.75;2.88;;;;;;;5.19;66.21;101120.00;4927770;29;20036;-96
2022/01/31 06:57:10;;;;;;;8.50;3.17;;;;;;;5.09;65.30;101087.25;4949534;28;20118;-90
2022/01/31 06:59:36;;;;;;;6.75;2.50;;;;;;;5.09;66.14;101120.91;4966117;28;20112;-87
2022/01/31 07:02:02;;;;;;;5.93;2.78;;;;;;;4.66;66.46;101058.81;4982422;28;20487;-89
2022/01/31 07:04:27;;;;;;;8.43;3.25;;;;;;;4.86;66.27;101099.22;4942654;28;20577;-88
2022/01/31 07:06:54;;;;;;;8.55;3.20;;;;;;;5.26;65.78;101124.88;4958500;28;20407;-88
2022/01/31 07:09:21;;;;;;;7.25;3.13;;;;;;;4.73;66.14;101048.97;4954376;28;20059;-89
2022/01/31 07:11:52;;;;;;;9.45;3.00;;;;;;;4.95;65.54;101062.84;4966821;28;20565;-92
2022/01/31 07:14:31;;;;;;;7.43;3.42;;;;;;;4.73;66.06;101060.19;4976768;28;20553;-94
2022/01/31 07:17:37;;;;;;;7.45;3.38;;;;;;;5.24;65.69;101111.78;4974877;28;20479;-93
2022/01/31 07:20:12;;;;;;;6.85;3.03;;;;;;;4.60;66.49;101044.47;4968950;28;20122;-92
2022/01/31 07:22:57;;;;;;;8.32;3.28;;;;;;;5.12;66.05;101108.22;4976137;28;20038;-94
2022/01/31 07:25:36;;;;;;;9.18;2.97;;;;;;;4.93;66.71;101100.63;4975675;28;20027;-92
2022/01/31 07:28:11;;;;;;;9.20;3.40;;;;;;;5.04;66.29;101140.34;4969069;28;20023;-94
2022/01/31 07:30:57;;;;;;;10.48;3.45;;;;;;;4.88;66.34;101113.19;4960738;28;20041;-92
2022/01/31 07:33:37;;;;;;;11.85;3.65;;;;;;;4.89;66.08;101091.72;4959647;28;20027;-94
2022/01/31 07:36:33;;;;;;;7.50;3.45;;;;;;;5.06;66.09;101157.81;4972663;28;20510;-92
2022/01/31 07:42:17;;;;;;;7.88;3.30;;;;;;;5.09;66.01;101170.09;4974883;28;20038;-92
2022/01/31 07:44:47;;;;;;;11.43;3.40;;;;;;;5.25;65.64;101178.34;4974454;28;20030;-93
2022/01/31 07:47:13;;;;;;;8.30;3.53;;;;;;;5.21;65.83;101176.28;4961167;28;20029;-96
2022/01/31 07:49:51;;;;;;;10.38;3.67;;;;;;;5.08;65.92;101153.66;4999001;28;20038;-93
2022/01/31 07:52:17;;;;;;;10.93;3.63;;;;;;;4.74;66.20;101105.06;5003522;28;20107;-92
2022/01/31 07:55:00;;;;;;;10.88;3.55;;;;;;;5.18;65.79;101168.25;4980075;28;20031;-91
2022/01/31 07:58:21;;;;;;;11.40;4.60;;;;;;;5.11;66.32;101155.59;4957854;28;20077;-92
2022/01/31 08:00:54;;;;;;;7.22;3.30;;;;;;;4.80;66.54;101090.97;4974083;28;20130;-93
2022/01/31 08:03:23;;;;;;;10.23;3.78;;;;;;;4.78;66.89;101092.50;4959043;28;20494;-91
2022/01/31 08:06:14;;;;;;;9.63;4.18;;;;;;;5.16;66.37;101119.72;4966204;28;20034;-90
2022/01/31 08:09:02;;;;;;;7.22;3.60;;;;;;;5.26;66.22;101117.09;4976333;28;20034;-90
2022/01/31 08:11:32;;;;;;;;;;;;;;;5.14;65.83;101100.56;4990337;28;20045;-90
2022/01/31 08:14:19;;;;;;;7.82;3.20;;;;;;;5.22;65.83;101110.75;4973168;28;19918;-91
2022/01/31 08:17:00;;;;;;;7.97;3.20;;;;;;;5.27;65.54;101086.16;4957587;28;20129;-90
2022/01/31 08:19:46;;;;;;;12.18;3.35;;;;;;;5.20;66.22;101101.97;4958542;28;20046;-90
2022/01/31 08:22:11;;;;;;;7.57;3.20;;;;;;;5.11;66.25;101103.81;4973259;28;20042;-90
2022/01/31 08:24:37;;;;;;;7.25;3.42;;;;;;;5.10;66.54;101091.66;4956861;28;20112;-90
2022/01/31 08:27:04;;;;;;;8.13;4.15;;;;;;;5.05;65.91;101070.56;4957107;28;20039;-89
2022/01/31 08:29:38;;;;;;;7.07;3.22;;;;;;;4.87;66.49;101049.31;4973182;28;20115;-89
2022/01/31 08:32:18;;;;;;;8.40;3.55;;;;;;;5.12;66.36;101090.09;4953339;28;20026;-90
2022/01/31 08:37:40;;;;;;;7.65;3.67;;;;;;;4.85;66.67;101058.63;4966542;28;20038;-91
2022/01/31 08:40:19;;;;;;;6.80;3.53;;;;;;;4.87;66.12;101049.31;4957003;28;20034;-93
2022/01/31 08:42:54;;;;;;;7.30;3.40;;;;;;;5.09;66.16;101082.09;4957966;28;20058;-94
2022/01/31 08:45:50;;;;;;;8.15;3.22;;;;;;;5.20;66.10;101098.47;4957839;28;20118;-96
2022/01/31 08:48:17;;;;;;;8.10;3.38;;;;;;;4.88;66.43;101064.03;4955132;29;20134;-95
2022/01/31 08:51:04;;;;;;;12.95;3.67;;;;;;;5.18;65.88;101098.34;4956145;28;20078;-92
2022/01/31 08:53:50;;;;;;;8.45;3.58;;;;;;;4.95;66.75;101104.25;4956742;28;20118;-94
2022/01/31 08:56:16;;;;;;;9.10;3.20;;;;;;;5.04;65.98;101067.88;4986483;28;20086;-93
2022/01/31 08:58:58;;;;;;;8.95;3.10;;;;;;;5.04;65.63;101067.88;4956058;28;20533;-94
2022/01/31 09:01:33;;;;;;;6.97;3.30;;;;;;;5.26;65.69;101089.53;4956961;28;20101;-95
2022/01/31 09:04:24;;;;;;;7.20;3.13;;;;;;;5.08;65.99;101065.66;4973188;28;20058;-94
2022/01/31 09:06:55;;;;;;;7.88;3.10;;;;;;;5.08;65.91;101090.66;4958621;28;20031;-94
2022/01/31 09:10:07;;;;;;;10.10;3.33;;;;;;;5.04;66.60;101098.94;4957223;28;20130;-94
2022/01/31 09:15:54;;;;;;;8.38;3.58;;;;;;;5.18;65.86;101069.88;4974489;28;20050;-94
2022/01/31 09:18:23;;;;;;;12.98;3.80;;;;;;;5.19;65.80;101083.75;4972802;28;20034;-95
2022/01/31 09:20:53;;;;;;;10.10;3.45;;;;;;;4.83;66.78;101036.91;4972759;28;20073;-94
2022/01/31 09:23:29;;;;;;;10.30;3.30;;;;;;;4.77;66.77;101045.84;4973292;28;20030;-94
2022/01/31 09:26:05;;;;;;;8.82;3.30;;;;;;;4.88;66.44;101038.16;4972900;28;20089;-94
2022/01/31 09:28:53;;;;;;;5.38;3.10;;;;;;;5.01;66.28;101078.88;4973252;28;20030;-94
2022/01/31 09:34:41;;;;;;;10.35;3.38;;;;;;;5.38;65.58;101063.72;4973872;28;20042;-94
2022/01/31 09:40:28;;;;;;;7.38;3.33;;;;;;;5.20;65.68;101033.75;4974001;28;20041;-94
2022/01/31 09:48:33;;;;;;;7.95;3.28;;;;;;;4.95;66.43;101012.78;4974877;28;20054;-95
2022/01/31 09:51:25;;;;;;;9.07;3.40;;;;;;;5.04;66.62;101029.97;4976176;28;20779;-96
2022/01/31 09:54:02;;;;;;;9.55;3.42;;;;;;;5.12;66.38;101027.97;4977895;28;20035;-96
2022/01/31 09:56:33;;;;;;;9.27;3.42;;;;;;;5.12;66.31;101027.06;4961013;28;20422;-94
2022/01/31 09:59:06;;;;;;;10.40;4.00;;;;;;;5.01;67.04;101024.53;4961558;28;20031;-95
2022/01/31 10:01:57;;;;;;;9.00;3.50;;;;;;;5.05;66.54;101023.09;4976400;28;20118;-95
2022/01/31 10:04:34;;;;;;;7.00;3.63;;;;;;;5.05;66.56;101020.50;4977572;28;20096;-95
2022/01/31 10:07:05;;;;;;;9.23;3.55;;;;;;;4.86;67.11;100992.25;4992578;28;20063;-94
2022/01/31 10:09:33;;;;;;;9.05;3.50;;;;;;;4.96;66.61;100991.31;4977224;28;20039;-91
2022/01/31 10:17:50;;;;;;;8.20;3.35;;;;;;;5.03;66.28;100991.91;4998143;28;20050;-93
2022/01/31 10:20:25;;;;;;;11.50;3.92;;;;;;;4.92;66.75;100973.72;4968559;28;20114;-93
2022/01/31 10:23:30;;;;;;;7.28;3.22;;;;;;;5.14;66.71;101015.16;4949722;28;20066;-94
2022/01/31 10:26:03;;;;;;;10.50;3.50;;;;;;;4.96;66.84;100976.69;4973339;28;20509;-94
2022/01/31 10:28:40;;;;;;;7.88;3.38;;;;;;;5.11;67.24;101013.22;4962731;28;20473;-94
2022/01/31 10:31:24;;;;;;;10.02;3.63;;;;;;;4.72;66.40;100928.16;4964619;28;20030;-94
2022/01/31 10:34:19;;;;;;;7.45;3.20;;;;;;;5.23;66.73;101000.38;4980117;28;20039;-94
2022/01/31 10:36:47;;;;;;;10.30;3.80;;;;;;;5.02;66.72;100960.75;4960820;28;20034;-94
2022/01/31 10:54:41;;;;;;;10.13;4.38;;;;;;;5.33;66.19;100979.56;4968674;28;20041;-91
2022/01/31 10:57:22;;;;;;;9.73;4.07;;;;;;;5.28;66.18;100940.38;4958624;28;20129;-91
2022/01/31 10:59:56;;;;;;;8.90;4.43;;;;;;;5.35;66.50;100980.59;4983198;28;20035;-90
2022/01/31 11:02:27;;;;;;;9.93;4.18;;;;;;;5.16;65.85;100936.81;4959924;28;20038;-93
2022/01/31 11:04:53;;;;;;;11.23;4.50;;;;;;;5.47;65.53;100953.06;4976779;28;20034;-86
2022/01/31 11:07:26;;;;;;;9.73;4.40;;;;;;;5.34;65.98;100946.84;4968832;28;20085;-89
2022/01/31 11:09:54;;;;;;;10.52;4.38;;;;;;;5.54;65.36;100958.72;4973317;28;20031;-92
2022/01/31 11:12:36;;;;;;;7.97;4.60;;;;;;;5.48;65.74;100949.69;4940295;29;20122;-91
2022/01/31 11:15:18;;;;;;;11.00;4.63;;;;;;;5.42;65.79;100936.28;4969761;28;20062;-88
2022/01/31 11:17:46;;;;;;;8.80;4.57;;;;;;;5.29;66.02;100917.97;4971383;28;20023;-87
2022/01/31 11:20:12;;;;;;;11.57;4.60;;;;;;;5.37;65.65;100915.97;4971227;28;20092;-89
2022/01/31 11:22:41;;;;;;;9.95;4.38;;;;;;;5.46;65.94;100937.38;4972681;28;20050;-87
2022/01/31 11:25:08;;;;;;;11.00;4.70;;;;;;;5.21;65.78;100896.69;4974902;28;20038;-88
2022/01/31 11:27:37;;;;;;;8.82;4.65;;;;;;;5.25;66.05;100906.50;4974257;28;20034;-86
2022/01/31 11:30:03;;;;;;;9.25;4.63;;;;;;;4.96;65.73;100849.88;4968658;28;20097;-88
2022/01/31 11:32:29;;;;;;;9.52;4.38;;;;;;;5.69;65.28;100933.97;4989719;28;20034;-87
2022/01/31 11:34:56;;;;;;;10.00;4.35;;;;;;;5.16;65.77;100853.09;4974323;28;20076;-87
2022/01/31 11:37:22;;;;;;;13.00;4.80;;;;;;;5.49;65.77;100917.81;4972686;28;20030;-87
2022/01/31 11:39:54;;;;;;;9.80;4.32;;;;;;;5.51;65.96;100920.53;4973291;28;20029;-88
2022/01/31 11:42:20;;;;;;;10.02;4.72;;;;;;;5.45;65.16;100857.91;4959403;28;20156;-86
2022/01/31 11:44:59;;;;;;;9.35;4.95;;;;;;;5.48;66.03;100915.09;4993201;28;20030;-89
2022/01/31 11:47:28;;;;;;;13.98;4.95;;;;;;;5.59;65.57;100910.75;4994090;28;20023;-84
2022/01/31 11:49:59;;;;;;;11.80;4.95;;;;;;;5.37;65.84;100874.56;4984232;28;20081;-84
2022/01/31 11:52:29;;;;;;;11.32;4.63;;;;;;;5.51;65.98;100907.59;4992486;28;20405;-84
2022/01/31 11:55:01;;;;;;;9.48;4.57;;;;;;;5.56;66.36;100907.94;4990497;28;20038;-85
2022/01/31 11:57:32;;;;;;;12.35;5.28;;;;;;;5.46;66.13;100883.00;4974279;28;20051;-85
2022/01/31 12:00:10;;;;;;;12.75;4.78;;;;;;;5.52;66.00;100893.84;4973094;28;20101;-86
2022/01/31 12:02:44;;;;;;;9.65;5.05;;;;;;;5.55;65.93;100872.47;4974098;28;20114;-85
2022/01/31 12:05:22;;;;;;;10.07;4.82;;;;;;;5.43;64.92;100818.03;4972947;28;20034;-85
2022/01/31 12:08:01;;;;;;;8.75;4.32;;;;;;;5.66;65.18;100871.56;4974064;28;20093;-84
2022/01/31 12:10:37;;;;;;;13.45;5.18;;;;;;;5.33;65.05;100812.97;4972854;28;20114;-83
2022/01/31 12:13:43;;;;;;;12.13;5.30;;;;;;;5.96;64.90;100888.53;4972903;28;20508;-85
2022/01/31 12:17:15;;;;;;;9.65;4.80;;;;;;;5.95;64.85;100871.19;4977301;28;20027;-85
2022/01/31 12:22:12;;;;;;;9.05;4.45;;;;;;;5.94;64.74;100865.84;4969116;28;20093;-88
2022/01/31 12:24:38;;;;;;;9.75;4.50;;;;;;;5.75;65.68;100863.59;4956206;28;20034;-88
2022/01/31 12:27:33;;;;;;;10.25;4.68;;;;;;;5.82;65.09;100856.41;4975881;28;20129;-87
2022/01/31 12:29:59;;;;;;;10.73;5.00;;;;;;;5.89;64.73;100855.16;4949920;28;20113;-86
2022/01/31 12:32:36;;;;;;;12.40;5.20;;;;;;;5.76;65.13;100839.47;4951429;28;20553;-86
2022/01/31 12:35:07;;;;;;;11.80;5.47;;;;;;;5.62;65.15;100816.03;4971025;28;20031;-85
2022/01/31 12:37:36;;;;;;;10.77;4.90;;;;;;;6.15;64.15;100851.00;4962429;28;20047;-86
2022/01/31 12:40:27;;;;;;;11.02;5.25;;;;;;;6.19;64.42;100848.75;4943431;28;20499;-86
2022/01/31 12:45:51;;;;;;;10.10;4.78;;;;;;;6.05;64.57;100849.44;4969401;28;20064;-86
2022/01/31 12:48:22;;;;;;;9.27;4.88;;;;;;;6.03;64.81;100853.59;4970261;28;20533;-85
2022/01/31 12:50:56;;;;;;;10.48;4.90;;;;;;;5.86;65.24;100855.84;4973764;28;20037;-86
2022/01/31 12:56:24;;;;;;;8.50;4.70;;;;;;;6.10;64.74;100848.97;4973381;28;20518;-84
2022/01/31 12:59:02;;;;;;;27.20;6.05;;;;;;;6.03;64.84;100846.75;4973028;28;20035;-84
2022/01/31 13:01:35;;;;;;;9.05;5.00;;;;;;;5.61;65.19;100785.75;4972982;28;20038;-83
2022/01/31 13:04:21;;;;;;;11.05;4.70;;;;;;;5.87;65.18;100810.09;4973061;28;20031;-84
2022/01/31 13:06:50;;;;;;;8.32;4.70;;;;;;;6.11;65.18;100831.72;4972888;28;20023;-84
2022/01/31 13:09:18;;;;;;;10.73;4.78;;;;;;;6.16;64.64;100826.88;4971660;28;20039;-84
2022/01/31 13:11:47;;;;;;;8.73;4.82;;;;;;;5.74;64.55;100772.00;4972051;28;20062;-84
2022/01/31 13:14:20;;;;;;;11.60;5.28;;;;;;;5.79;65.43;100814.69;4953997;28;20037;-83
2022/01/31 13:17:08;;;;;;;8.30;4.63;;;;;;;6.06;65.07;100846.94;4947695;28;20038;-87
2022/01/31 13:19:47;;;;;;;9.88;4.88;;;;;;;6.01;65.17;100819.81;4965288;28;20042;-84
2022/01/31 13:22:30;;;;;;;9.38;4.57;;;;;;;6.13;64.28;100824.06;4971850;28;20031;-85
2022/01/31 13:24:58;;;;;;;8.73;4.60;;;;;;;6.13;63.81;100800.75;4970886;28;20038;-84
2022/01/31 13:27:39;;;;;;;8.90;4.53;;;;;;;6.16;64.56;100842.44;4970502;28;20062;-84
2022/01/31 13:30:26;;;;;;;8.63;4.57;;;;;;;6.33;64.28;100844.56;4969903;28;20409;-84
2022/01/31 13:32:53;;;;;;;9.15;4.80;;;;;;;6.25;63.82;100827.56;4983784;28;20076;-85
2022/01/31 13:35:20;;;;;;;11.38;4.85;;;;;;;6.29;63.60;100819.22;4983880;28;20057;-84
2022/01/31 13:37:57;;;;;;;10.45;5.13;;;;;;;6.25;63.95;100810.31;4970907;28;20541;-85
2022/01/31 13:40:22;;;;;;;9.85;5.05;;;;;;;6.38;64.07;100842.31;4967504;28;20062;-85
2022/01/31 13:43:16;;;;;;;11.07;4.78;;;;;;;6.42;63.77;100850.41;4952433;29;20463;-85
2022/01/31 13:45:59;;;;;;;8.90;4.45;;;;;;;6.37;63.60;100837.88;4951193;29;20503;-85